Time;durP1;ratioP1;P1;durP2;ratioP2;P2;SDS_P1;SDS_P2;PMS_P1;PMS_P2;Temp;Humidity;BMP_temperature;BMP_pressure;BME280_temperature;BME280_humidity;BME280_pressure;Samples;Min_cycle;Max_cycle;Signal;HPM_P1;HPM_P2
2023/03/22 00:00:05;;;;;;;1.00;1.00;;;;;;;12.71;64.63;100527.28;5099154;28;20048;-83
2023/03/22 00:02:35;;;;;;;1.55;0.68;;;;;;;12.68;64.76;100516.88;5104344;29;20619;-82
2023/03/22 00:05:06;;;;;;;0.98;0.80;;;;;;;12.74;64.65;100521.91;5089719;29;20127;-80
2023/03/22 00:07:39;;;;;;;1.25;1.15;;;;;;;12.66;64.68;100519.56;5096719;29;20028;-82
2023/03/22 00:10:10;;;;;;;1.15;1.05;;;;;;;12.59;65.16;100516.34;5113634;28;20036;-83
2023/03/22 00:12:41;;;;;;;0.52;0.52;;;;;;;12.68;64.81;100524.78;5086272;29;20107;-82
2023/03/22 00:15:11;;;;;;;0.30;0.30;;;;;;;12.69;64.95;100514.19;5109165;28;20058;-82
2023/03/22 00:17:43;;;;;;;1.17;0.90;;;;;;;12.70;64.71;100510.66;5097460;29;20075;-82
2023/03/22 00:20:14;;;;;;;0.65;0.65;;;;;;;12.60;65.10;100506.66;5111207;28;20047;-83
2023/03/22 00:22:46;;;;;;;0.82;0.80;;;;;;;12.68;65.22;100511.63;5103482;29;20024;-82
2023/03/22 00:25:16;;;;;;;0.40;0.40;;;;;;;12.66;65.14;100508.19;5122568;28;20292;-82
2023/03/22 00:27:47;;;;;;;0.82;0.80;;;;;;;12.64;65.11;100500.38;5095351;29;20030;-82
2023/03/22 00:30:18;;;;;;;1.48;1.17;;;;;;;12.60;65.31;100496.97;5093999;29;20040;-81
2023/03/22 00:32:48;;;;;;;0.88;0.88;;;;;;;12.68;65.05;100501.09;5103665;29;20035;-82
2023/03/22 00:35:19;;;;;;;0.90;0.73;;;;;;;12.64;65.16;100496.84;5069021;29;20044;-82
2023/03/22 00:37:50;;;;;;;0.40;0.40;;;;;;;12.71;65.21;100490.44;5110722;29;20042;-82
2023/03/22 00:40:20;;;;;;;0.90;0.90;;;;;;;12.68;65.10;100490.56;5119768;28;20045;-83
2023/03/22 00:42:51;;;;;;;1.45;1.35;;;;;;;12.68;64.90;100486.16;5095817;29;20095;-82
2023/03/22 00:45:21;;;;;;;0.90;0.90;;;;;;;12.63;65.25;100481.97;5110543;28;20036;-81
2023/03/22 00:47:52;;;;;;;0.52;0.52;;;;;;;12.69;65.32;100482.59;5089216;29;20056;-82
2023/03/22 00:50:22;;;;;;;1.27;1.15;;;;;;;12.60;65.37;100461.91;5094926;29;20062;-82
2023/03/22 00:52:53;;;;;;;0.88;0.65;;;;;;;12.48;66.05;100465.03;5109212;29;20027;-81
2023/03/22 00:55:24;;;;;;;0.47;0.47;;;;;;;12.51;65.48;100468.41;5100128;29;20054;-83
2023/03/22 00:57:54;;;;;;;0.77;0.77;;;;;;;12.58;65.56;100464.59;5088950;29;20093;-82
2023/03/22 01:00:26;;;;;;;0.98;0.98;;;;;;;12.57;65.46;100457.63;5116143;28;20067;-83
2023/03/22 01:02:58;;;;;;;0.70;0.68;;;;;;;12.42;66.16;100463.50;5097252;29;20036;-81
2023/03/22 01:05:33;;;;;;;0.30;0.30;;;;;;;12.38;66.68;100461.88;5096521;28;20063;-82
2023/03/22 01:08:07;;;;;;;0.93;0.93;;;;;;;12.29;66.83;100457.84;5076344;29;20038;-82
2023/03/22 01:10:38;;;;;;;0.65;0.65;;;;;;;12.34;66.76;100455.03;5063517;29;20050;-81
2023/03/22 01:13:10;;;;;;;8.98;2.00;;;;;;;12.34;66.84;100441.88;5066311;29;20107;-83
2023/03/22 01:15:41;;;;;;;0.52;0.52;;;;;;;12.23;66.71;100445.78;5113121;28;20039;-82
2023/03/22 01:18:11;;;;;;;0.85;0.55;;;;;;;12.21;67.13;100441.50;5082011;29;20039;-82
2023/03/22 01:20:42;;;;;;;0.50;0.50;;;;;;;12.31;66.42;100449.88;5068283;29;20082;-82
2023/03/22 01:23:13;;;;;;;0.60;0.60;;;;;;;12.33;66.55;100445.44;5114926;28;20055;-81
2023/03/22 01:25:43;;;;;;;1.02;1.00;;;;;;;12.28;66.24;100435.94;5077785;29;20119;-81
2023/03/22 01:28:14;;;;;;;1.15;1.15;;;;;;;12.18;66.90;100438.97;5106318;29;20036;-81
2023/03/22 01:30:45;;;;;;;0.77;0.77;;;;;;;12.27;66.21;100438.63;5107221;28;20038;-81
2023/03/22 01:33:15;;;;;;;0.57;0.40;;;;;;;12.22;66.95;100435.34;5089762;29;20059;-81
2023/03/22 01:35:46;;;;;;;1.15;1.10;;;;;;;12.30;66.62;100428.00;5089047;29;20048;-82
2023/03/22 01:38:17;;;;;;;0.82;0.82;;;;;;;12.25;66.68;100430.81;5100929;29;20039;-82
2023/03/22 01:40:47;;;;;;;2.47;0.70;;;;;;;12.36;66.17;100432.13;5102247;28;20131;-82
2023/03/22 01:43:18;;;;;;;0.82;0.82;;;;;;;12.02;67.84;100415.06;5122527;28;20046;-82
2023/03/22 01:45:50;;;;;;;0.43;0.43;;;;;;;12.17;67.14;100416.22;5096039;29;20098;-82
2023/03/22 01:48:24;;;;;;;0.28;0.28;;;;;;;12.03;67.46;100411.47;5074070;29;20058;-81
2023/03/22 01:51:21;;;;;;;0.77;0.77;;;;;;;12.09;67.56;100404.22;5085184;29;20055;-80
2023/03/22 01:53:55;;;;;;;2.42;2.13;;;;;;;12.19;66.57;100399.47;5085066;29;20036;-82
2023/03/22 01:56:29;;;;;;;0.88;0.88;;;;;;;12.14;67.39;100396.16;5097831;28;20087;-82
2023/03/22 01:59:00;;;;;;;0.35;0.35;;;;;;;12.15;66.71;100402.28;5098533;28;20037;-81
2023/03/22 02:01:32;;;;;;;0.45;0.45;;;;;;;12.10;66.69;100390.16;5086699;28;20127;-82
2023/03/22 02:04:12;;;;;;;0.20;0.20;;;;;;;12.13;67.30;100394.44;5094546;29;20117;-82
2023/03/22 02:06:45;;;;;;;1.00;1.00;;;;;;;12.11;67.16;100388.38;5098435;28;20044;-82
2023/03/22 02:09:17;;;;;;;0.40;0.40;;;;;;;12.14;66.99;100384.78;5078503;28;20038;-82
2023/03/22 02:12:32;;;;;;;0.28;0.28;;;;;;;12.14;66.90;100388.28;5099654;29;20032;-83
2023/03/22 02:15:19;;;;;;;1.17;1.15;;;;;;;12.10;66.87;100384.06;5102921;29;20963;-83
2023/03/22 02:18:24;;;;;;;1.92;1.33;;;;;;;12.16;66.57;100373.28;5091292;29;20055;-82
2023/03/22 02:21:29;;;;;;;0.40;0.40;;;;;;;12.14;66.51;100369.88;5093678;28;20040;-81
2023/03/22 02:24:08;;;;;;;0.63;0.63;;;;;;;12.11;66.63;100369.97;5098616;29;20044;-83
2023/03/22 02:27:05;;;;;;;1.17;0.75;;;;;;;12.07;67.51;100363.97;5099374;29;20114;-83
2023/03/22 02:30:06;;;;;;;2.83;1.85;;;;;;;12.08;66.81;100355.19;5071592;28;20115;-83
2023/03/22 02:32:55;;;;;;;0.70;0.70;;;;;;;12.08;67.42;100356.97;5070241;29;20035;-82
2023/03/22 02:36:01;;;;;;;0.30;0.30;;;;;;;12.01;67.74;100352.88;5111203;28;20040;-82
2023/03/22 02:39:03;;;;;;;0.40;0.40;;;;;;;12.00;67.87;100348.53;5107702;29;20047;-83
2023/03/22 02:41:52;;;;;;;0.85;0.85;;;;;;;11.96;68.07;100345.97;5087942;29;20653;-82
2023/03/22 02:44:44;;;;;;;0.40;0.40;;;;;;;11.91;67.84;100342.66;5107450;28;20035;-82
2023/03/22 02:47:33;;;;;;;0.60;0.60;;;;;;;11.96;67.41;100345.13;5105588;29;20156;-82
2023/03/22 02:50:27;;;;;;;0.73;0.73;;;;;;;11.82;68.56;100343.84;5085215;29;20043;-83
2023/03/22 02:53:11;;;;;;;1.08;0.98;;;;;;;11.92;68.09;100336.50;5115916;28;20534;-82
2023/03/22 02:56:02;;;;;;;0.30;0.30;;;;;;;11.95;67.64;100339.00;5088666;29;20779;-82
2023/03/22 02:58:52;;;;;;;0.60;0.60;;;;;;;11.93;68.28;100340.84;5083817;29;20035;-83
2023/03/22 03:01:29;;;;;;;0.30;0.30;;;;;;;11.92;67.60;100336.50;5099609;29;20055;-81
2023/03/22 03:04:04;;;;;;;1.40;1.30;;;;;;;11.87;68.24;100337.59;5105597;29;20038;-81
2023/03/22 03:06:39;;;;;;;2.22;1.05;;;;;;;11.80;68.67;100337.84;5107576;29;20042;-82
2023/03/22 03:09:12;;;;;;;1.25;1.10;;;;;;;11.88;67.66;100337.50;5132630;28;20043;-82
2023/03/22 03:11:48;;;;;;;1.27;0.77;;;;;;;11.76;68.83;100338.00;5112451;29;20048;-81
2023/03/22 03:14:25;;;;;;;0.40;0.40;;;;;;;11.75;68.42;100333.66;5117869;28;20043;-83
2023/03/22 03:17:31;;;;;;;0.40;0.40;;;;;;;11.72;68.23;100328.50;5100711;29;20023;-81
2023/03/22 03:20:21;;;;;;;0.60;0.60;;;;;;;11.59;69.11;100330.75;5099407;29;20055;-81
2023/03/22 03:23:12;;;;;;;0.40;0.40;;;;;;;11.76;68.08;100330.13;5070528;29;20162;-82
2023/03/22 03:25:50;;;;;;;0.73;0.73;;;;;;;11.79;67.94;100322.09;5116216;28;20036;-81
2023/03/22 03:28:37;;;;;;;2.17;0.50;;;;;;;11.78;67.65;100323.88;5083723;29;20036;-81
2023/03/22 03:31:32;;;;;;;0.65;0.65;;;;;;;11.74;68.25;100319.63;5092036;28;20439;-81
2023/03/22 03:34:09;;;;;;;0.65;0.65;;;;;;;11.57;69.02;100324.72;5081983;29;20040;-81
2023/03/22 03:36:46;;;;;;;0.50;0.50;;;;;;;11.57;68.52;100322.94;5080586;29;20044;-81
2023/03/22 03:39:18;;;;;;;0.40;0.40;;;;;;;11.61;68.40;100319.25;5095610;28;20446;-82
2023/03/22 03:41:51;;;;;;;0.30;0.30;;;;;;;11.61;68.69;100319.25;5099132;29;20031;-82
2023/03/22 03:44:23;;;;;;;1.23;0.80;;;;;;;11.61;68.74;100319.25;5105472;28;20031;-82
2023/03/22 03:46:55;;;;;;;0.80;0.70;;;;;;;11.59;68.78;100320.22;5103757;29;20102;-80
2023/03/22 03:49:26;;;;;;;1.65;1.38;;;;;;;11.56;68.95;100320.38;5088551;28;20076;-82
2023/03/22 03:51:58;;;;;;;0.63;0.63;;;;;;;11.61;68.64;100319.25;5106432;29;20024;-81
2023/03/22 03:54:29;;;;;;;0.30;0.30;;;;;;;11.62;68.15;100326.22;5097703;28;20554;-82
2023/03/22 03:57:00;;;;;;;2.67;2.47;;;;;;;11.68;67.69;100326.94;5118331;28;20044;-82
2023/03/22 03:59:31;;;;;;;0.63;0.57;;;;;;;11.54;68.51;100322.19;5083737;28;20698;-81
2023/03/22 04:02:02;;;;;;;0.40;0.40;;;;;;;11.56;68.37;100334.34;5119325;28;20043;-81
2023/03/22 04:04:33;;;;;;;0.95;0.85;;;;;;;11.48;69.00;100323.25;5100239;28;20032;-82
2023/03/22 04:07:05;;;;;;;1.20;1.20;;;;;;;11.56;68.25;100328.25;5101086;29;20027;-81
2023/03/22 04:09:37;;;;;;;0.30;0.30;;;;;;;11.43;69.08;100325.22;5105774;28;20131;-82
2023/03/22 04:12:11;;;;;;;0.32;0.32;;;;;;;11.48;68.55;100328.53;5095444;29;20118;-81
2023/03/22 04:14:42;;;;;;;1.17;0.90;;;;;;;11.43;69.21;100326.06;5090272;28;20066;-83
2023/03/22 04:17:12;;;;;;;0.35;0.35;;;;;;;11.46;69.19;100325.09;5087683;29;20055;-81
2023/03/22 04:19:44;;;;;;;0.50;0.50;;;;;;;11.35;69.61;100328.13;5091825;28;20112;-82
2023/03/22 04:22:17;;;;;;;2.58;1.92;;;;;;;11.46;68.68;100319.84;5109715;29;20675;-81
2023/03/22 04:24:48;;;;;;;0.50;0.50;;;;;;;11.43;68.98;100322.59;5083037;29;20055;-82
2023/03/22 04:27:21;;;;;;;0.40;0.40;;;;;;;11.45;68.33;100312.84;5092878;29;20038;-82
2023/03/22 04:29:53;;;;;;;0.65;0.65;;;;;;;11.25;69.63;100313.59;5103085;29;20090;-81
2023/03/22 04:32:23;;;;;;;0.73;0.73;;;;;;;11.31;69.03;100301.09;5101035;29;20477;-82
2023/03/22 04:34:54;;;;;;;1.20;1.10;;;;;;;11.38;68.11;100287.75;5094786;29;20044;-81
2023/03/22 04:37:25;;;;;;;1.15;1.05;;;;;;;11.36;68.85;100297.47;5098657;29;20040;-81
2023/03/22 04:39:57;;;;;;;0.40;0.40;;;;;;;11.33;68.89;100301.91;5100815;29;20492;-82
2023/03/22 04:42:28;;;;;;;1.23;1.13;;;;;;;11.14;69.95;100303.50;5115957;28;20517;-81
2023/03/22 04:44:59;;;;;;;0.68;0.60;;;;;;;11.27;69.17;100302.16;5101983;28;20108;-82
2023/03/22 04:47:29;;;;;;;1.73;1.48;;;;;;;11.28;68.88;100301.22;5089309;29;20454;-82
2023/03/22 04:50:00;;;;;;;0.52;0.52;;;;;;;11.28;69.04;100301.22;5087479;28;20115;-82
2023/03/22 04:52:30;;;;;;;0.85;0.85;;;;;;;11.15;69.28;100299.94;5086594;29;20032;-80
2023/03/22 04:55:01;;;;;;;0.50;0.50;;;;;;;11.26;68.64;100302.19;5104721;28;20729;-81
2023/03/22 04:57:31;;;;;;;1.55;0.68;;;;;;;11.23;68.95;100300.53;5098408;29;20095;-81
2023/03/22 05:00:07;;;;;;;0.57;0.57;;;;;;;11.29;68.50;100300.28;5101094;29;20068;-82
2023/03/22 05:02:39;;;;;;;0.55;0.55;;;;;;;11.33;68.66;100296.66;5103704;29;20961;-82
2023/03/22 05:05:09;;;;;;;1.20;1.02;;;;;;;11.31;68.39;100287.97;5110170;28;20265;-81
2023/03/22 05:07:40;;;;;;;9.35;1.80;;;;;;;11.32;69.04;100287.06;5088547;29;20028;-82
2023/03/22 05:10:10;;;;;;;1.25;1.08;;;;;;;11.28;68.83;100295.97;5107730;28;20043;-82
2023/03/22 05:12:41;;;;;;;1.52;1.42;;;;;;;11.27;68.99;100299.53;5099248;28;20560;-81
2023/03/22 05:15:12;;;;;;;0.38;0.38;;;;;;;11.21;69.52;100309.38;5108424;28;20035;-82
2023/03/22 05:17:43;;;;;;;5.15;1.85;;;;;;;11.21;69.03;100304.97;5117975;28;20025;-81
2023/03/22 05:20:14;;;;;;;1.05;1.05;;;;;;;11.30;68.43;100302.00;5087460;29;20054;-81
2023/03/22 05:22:44;;;;;;;0.63;0.63;;;;;;;11.21;69.27;100299.72;5114919;28;20035;-82
2023/03/22 05:25:15;;;;;;;0.25;0.25;;;;;;;11.27;69.16;100302.16;5086442;29;20051;-82
2023/03/22 05:27:45;;;;;;;0.45;0.45;;;;;;;11.27;68.77;100303.91;5097500;29;20027;-81
2023/03/22 05:30:16;;;;;;;0.47;0.47;;;;;;;11.12;69.95;100298.31;5096620;28;20043;-81
2023/03/22 05:32:48;;;;;;;0.40;0.40;;;;;;;11.05;70.53;100303.81;5094188;29;20050;-81
2023/03/22 05:35:18;;;;;;;0.70;0.70;;;;;;;11.07;70.16;100307.25;5105493;28;20040;-82
2023/03/22 05:37:50;;;;;;;0.35;0.35;;;;;;;11.13;69.68;100309.66;5085780;29;20742;-81
2023/03/22 05:40:20;;;;;;;2.25;1.42;;;;;;;11.12;69.52;100305.31;5121675;28;20058;-82
2023/03/22 05:42:51;;;;;;;2.25;2.05;;;;;;;11.01;70.38;100305.69;5082214;29;20036;-82
2023/03/22 05:45:22;;;;;;;0.50;0.50;;;;;;;11.00;70.52;100301.34;5083136;29;20047;-82
2023/03/22 05:47:53;;;;;;;1.05;1.05;;;;;;;11.13;69.83;100313.16;5093385;29;20079;-81
2023/03/22 05:50:23;;;;;;;1.77;1.65;;;;;;;11.21;69.66;100304.97;5100376;28;20067;-81
2023/03/22 05:52:54;;;;;;;1.65;1.13;;;;;;;10.99;70.79;100303.13;5082709;29;20043;-81
2023/03/22 05:55:25;;;;;;;1.48;1.23;;;;;;;11.12;69.96;100310.56;5103817;29;20107;-82
2023/03/22 05:57:55;;;;;;;0.38;0.38;;;;;;;11.12;70.40;100316.69;5103740;29;20074;-81
2023/03/22 06:00:27;;;;;;;1.08;1.00;;;;;;;11.13;70.21;100310.53;5083183;29;20087;-81
2023/03/22 06:03:02;;;;;;;0.80;0.80;;;;;;;11.01;71.03;100311.81;5091658;29;20025;-84
2023/03/22 06:05:35;;;;;;;0.85;0.80;;;;;;;11.07;70.11;100308.13;5063989;29;20694;-83
2023/03/22 06:08:05;;;;;;;0.88;0.85;;;;;;;11.09;69.97;100305.44;5094994;29;20032;-80
2023/03/22 06:10:36;;;;;;;0.63;0.63;;;;;;;10.94;71.17;100310.31;5104997;28;20548;-80
2023/03/22 06:13:06;;;;;;;0.93;0.93;;;;;;;11.00;70.60;100307.47;5092291;29;20039;-80
2023/03/22 06:15:37;;;;;;;0.50;0.50;;;;;;;11.05;70.38;100311.69;5098345;29;20092;-80
2023/03/22 06:18:07;;;;;;;0.25;0.25;;;;;;;11.10;69.85;100308.00;5117619;28;20716;-82
2023/03/22 06:20:39;;;;;;;0.50;0.50;;;;;;;10.95;71.28;100309.38;5085894;29;20052;-82
2023/03/22 06:23:09;;;;;;;0.57;0.57;;;;;;;10.99;71.00;100308.38;5110064;29;20040;-82
2023/03/22 06:25:40;;;;;;;0.35;0.35;;;;;;;10.98;71.32;100309.28;5118952;28;20107;-83
2023/03/22 06:28:10;;;;;;;0.47;0.47;;;;;;;11.09;70.87;100311.53;5070370;29;20115;-83
2023/03/22 06:30:41;;;;;;;1.33;1.23;;;;;;;11.10;70.56;100312.41;5114523;28;20064;-84
2023/03/22 06:33:11;;;;;;;0.30;0.30;;;;;;;11.17;70.36;100306.84;5099473;29;20083;-83
2023/03/22 06:35:42;;;;;;;1.52;1.33;;;;;;;11.06;71.55;100305.53;5085870;29;20410;-83
2023/03/22 06:38:12;;;;;;;0.40;0.40;;;;;;;11.05;70.54;100293.31;5114905;28;20147;-83
2023/03/22 06:40:43;;;;;;;1.08;1.02;;;;;;;11.11;70.83;100308.88;5084035;28;20044;-83
2023/03/22 06:43:13;;;;;;;0.20;0.20;;;;;;;11.18;71.00;100310.34;5104333;29;20059;-82
2023/03/22 06:45:47;;;;;;;0.77;0.77;;;;;;;10.96;71.63;100297.97;5113275;28;20031;-84
2023/03/22 06:48:17;;;;;;;0.38;0.38;;;;;;;11.18;70.46;100297.22;5096142;29;20042;-83
2023/03/22 06:50:48;;;;;;;1.88;1.20;;;;;;;11.16;71.09;100296.41;5101519;28;20039;-83
2023/03/22 06:53:18;;;;;;;0.40;0.40;;;;;;;11.10;71.60;100300.13;5102209;29;20649;-83
2023/03/22 06:55:49;;;;;;;0.73;0.73;;;;;;;10.98;72.06;100296.16;5110786;28;20044;-83
2023/03/22 06:58:20;;;;;;;0.30;0.30;;;;;;;11.13;71.08;100281.63;5118372;28;20035;-84
2023/03/22 07:00:51;;;;;;;0.30;0.30;;;;;;;11.10;71.29;100289.63;5065915;29;20048;-83
2023/03/22 07:03:21;;;;;;;0.43;0.43;;;;;;;11.06;70.95;100285.41;5112042;28;20036;-82
2023/03/22 07:05:52;;;;;;;1.20;0.60;;;;;;;11.05;71.08;100285.44;5112832;28;20050;-83
2023/03/22 07:08:22;;;;;;;0.20;0.20;;;;;;;11.19;70.76;100280.56;5102032;29;20063;-84
2023/03/22 07:10:52;;;;;;;0.40;0.40;;;;;;;11.25;69.78;100285.59;5098563;28;20043;-84
2023/03/22 07:13:23;;;;;;;0.20;0.20;;;;;;;11.29;69.14;100287.16;5081956;29;20039;-84
2023/03/22 07:15:55;;;;;;;0.43;0.43;;;;;;;11.30;69.54;100277.53;5062831;29;20513;-85
2023/03/22 07:18:26;;;;;;;0.22;0.22;;;;;;;11.28;69.24;100284.59;5082574;29;20050;-84
2023/03/22 07:20:57;;;;;;;2.95;1.20;;;;;;;11.22;69.12;100283.06;5093023;28;20604;-84
2023/03/22 07:23:27;;;;;;;0.45;0.45;;;;;;;11.17;69.08;100277.97;5096529;29;20174;-84
2023/03/22 07:25:59;;;;;;;0.52;0.52;;;;;;;11.37;68.80;100289.53;5114961;28;20042;-84
2023/03/22 07:28:31;;;;;;;0.57;0.55;;;;;;;11.41;69.03;100285.00;5115890;28;20019;-83
2023/03/22 07:31:04;;;;;;;0.40;0.40;;;;;;;11.41;69.26;100283.22;5096020;28;20179;-86
2023/03/22 07:33:34;;;;;;;0.30;0.30;;;;;;;11.49;69.14;100288.19;5097717;29;20140;-84
2023/03/22 07:36:07;;;;;;;0.40;0.40;;;;;;;11.53;68.68;100275.81;5094961;29;20652;-84
2023/03/22 07:38:37;;;;;;;0.47;0.47;;;;;;;11.45;68.50;100286.59;5096692;29;20027;-85
2023/03/22 07:41:08;;;;;;;0.63;0.63;;;;;;;11.48;68.49;100286.47;5118088;28;20051;-86
2023/03/22 07:43:39;;;;;;;0.60;0.60;;;;;;;11.39;67.65;100284.19;5075255;29;20116;-85
2023/03/22 07:46:09;;;;;;;0.45;0.45;;;;;;;11.51;67.34;100291.63;5080304;29;20064;-85
2023/03/22 07:48:40;;;;;;;0.30;0.30;;;;;;;11.40;67.07;100288.53;5101727;29;20040;-84
2023/03/22 07:51:11;;;;;;;0.30;0.30;;;;;;;11.35;67.33;100296.59;5098270;28;20059;-85
2023/03/22 07:53:41;;;;;;;0.20;0.20;;;;;;;11.40;66.33;100293.78;5092270;29;20095;-86
2023/03/22 07:56:12;;;;;;;0.52;0.52;;;;;;;11.37;66.30;100299.16;5082757;29;20028;-85
2023/03/22 07:58:42;;;;;;;0.25;0.25;;;;;;;11.30;65.51;100298.53;5109123;29;20040;-85
2023/03/22 08:01:13;;;;;;;0.30;0.30;;;;;;;11.38;66.16;100306.13;5087388;29;21427;-87
2023/03/22 08:03:43;;;;;;;0.28;0.28;;;;;;;11.29;66.82;100308.19;5099689;29;21485;-85
2023/03/22 08:06:15;;;;;;;0.35;0.35;;;;;;;11.30;66.45;100299.38;5110111;28;20606;-85
2023/03/22 08:08:46;;;;;;;0.20;0.20;;;;;;;11.27;67.08;100301.28;5115277;28;20491;-85
2023/03/22 08:11:16;;;;;;;1.23;1.13;;;;;;;11.29;66.63;100296.84;5095725;28;20075;-86
2023/03/22 08:13:46;;;;;;;0.52;0.50;;;;;;;11.30;66.72;100299.38;5099195;29;20039;-85
2023/03/22 08:16:17;;;;;;;3.50;1.67;;;;;;;11.27;66.38;100291.63;5065268;29;20044;-85
2023/03/22 08:18:48;;;;;;;1.23;1.23;;;;;;;11.29;65.95;100294.19;5064642;29;20367;-85
2023/03/22 08:21:18;;;;;;;0.38;0.38;;;;;;;11.25;66.12;100295.22;5076458;29;20075;-86
2023/03/22 08:23:48;;;;;;;0.30;0.30;;;;;;;11.26;65.96;100299.56;5092683;29;20035;-83
2023/03/22 08:26:21;;;;;;;0.20;0.20;;;;;;;11.28;66.21;100300.38;5109051;28;20498;-85
2023/03/22 08:28:51;;;;;;;0.95;0.95;;;;;;;11.34;66.53;100300.13;5110475;29;20130;-84
2023/03/22 08:31:22;;;;;;;0.65;0.50;;;;;;;11.34;65.99;100306.25;5083527;29;20043;-84
2023/03/22 08:33:52;;;;;;;0.82;0.82;;;;;;;11.29;65.56;100309.97;5102762;29;20119;-85
2023/03/22 08:36:23;;;;;;;0.75;0.75;;;;;;;11.27;65.19;100312.66;5066314;29;20051;-83
2023/03/22 08:38:53;;;;;;;7.43;0.82;;;;;;;11.27;64.45;100310.03;5075228;29;20062;-84
2023/03/22 08:41:24;;;;;;;0.20;0.20;;;;;;;11.29;64.91;100313.44;5084182;28;20126;-84
2023/03/22 08:43:55;;;;;;;1.17;0.77;;;;;;;11.25;63.97;100308.34;5119744;28;20032;-84
2023/03/22 08:46:26;;;;;;;0.20;0.20;;;;;;;11.39;63.97;100313.09;5082983;28;20035;-84
2023/03/22 08:48:59;;;;;;;1.10;1.00;;;;;;;11.42;63.68;100307.75;5081285;29;20032;-83
2023/03/22 08:51:30;;;;;;;0.30;0.30;;;;;;;11.45;63.41;100297.97;5094290;28;20035;-84
2023/03/22 08:54:03;;;;;;;0.20;0.20;;;;;;;11.54;63.33;100302.00;5066399;29;20027;-85
2023/03/22 08:56:36;;;;;;;0.65;0.65;;;;;;;11.58;63.36;100293.13;5097030;28;20155;-84
2023/03/22 08:59:08;;;;;;;0.95;0.95;;;;;;;11.62;63.48;100299.94;5065113;29;20815;-86
2023/03/22 09:01:39;;;;;;;2.25;2.05;;;;;;;11.71;63.72;100303.13;5101919;28;20151;-84
2023/03/22 09:04:09;;;;;;;0.38;0.38;;;;;;;11.70;63.08;100299.66;5097163;29;20131;-86
2023/03/22 09:06:43;;;;;;;0.68;0.68;;;;;;;11.84;63.64;100295.63;5065510;29;20047;-85
2023/03/22 09:09:13;;;;;;;;;;;;;;;11.94;62.72;100291.72;5110189;28;20027;-85
2023/03/22 09:11:43;;;;;;;0.30;0.30;;;;;;;11.95;61.63;100286.41;5098518;28;19919;-85
2023/03/22 09:14:14;;;;;;;0.40;0.40;;;;;;;11.84;61.09;100306.16;5072481;29;20040;-85
2023/03/22 09:16:45;;;;;;;0.52;0.52;;;;;;;11.85;61.31;100285.09;5110649;28;20079;-85
2023/03/22 09:19:16;;;;;;;0.20;0.20;;;;;;;11.85;61.31;100294.72;5062717;28;20098;-84
2023/03/22 09:21:46;;;;;;;1.20;1.10;;;;;;;11.89;61.38;100296.34;5094718;29;20364;-85
2023/03/22 09:24:17;;;;;;;0.38;0.38;;;;;;;11.86;61.35;100294.66;5099350;28;20039;-84
2023/03/22 09:26:48;;;;;;;0.20;0.20;;;;;;;11.87;61.69;100282.38;5093468;29;20058;-85
2023/03/22 09:29:19;;;;;;;0.20;0.20;;;;;;;11.85;61.36;100294.72;5086098;28;20036;-85
2023/03/22 09:31:50;;;;;;;0.20;0.20;;;;;;;11.84;61.93;100287.75;5113742;29;20454;-85
2023/03/22 09:34:20;;;;;;;0.68;0.68;;;;;;;11.85;61.58;100274.56;5084748;28;20035;-87
2023/03/22 09:36:53;;;;;;;1.17;1.17;;;;;;;11.93;61.86;100283.00;5123263;29;20035;-85
2023/03/22 09:39:23;;;;;;;0.20;0.20;;;;;;;11.90;62.19;100287.53;5098462;28;20027;-84
2023/03/22 09:41:58;;;;;;;0.22;0.22;;;;;;;11.92;63.28;100290.94;5108775;29;20031;-87
2023/03/22 09:44:33;;;;;;;1.38;1.27;;;;;;;11.90;62.59;100283.13;5098450;28;20043;-85
2023/03/22 09:47:11;;;;;;;0.30;0.30;;;;;;;12.08;61.97;100285.97;5112503;29;20028;-84
2023/03/22 09:49:45;;;;;;;0.57;0.57;;;;;;;12.13;62.52;100278.72;5113262;28;20044;-84
2023/03/22 09:52:16;;;;;;;0.32;0.32;;;;;;;12.19;61.42;100282.88;5112843;29;20050;-84
2023/03/22 09:54:47;;;;;;;0.32;0.32;;;;;;;12.12;61.89;100282.28;5107164;29;20031;-84
2023/03/22 09:57:35;;;;;;;5.40;3.13;;;;;;;12.14;60.71;100279.59;5096581;29;20028;-85
2023/03/22 10:00:11;;;;;;;0.20;0.20;;;;;;;12.31;61.35;100271.00;5115242;28;20043;-83
2023/03/22 10:02:44;;;;;;;0.65;0.65;;;;;;;12.39;61.46;100279.44;5109501;29;20111;-83
2023/03/22 10:05:23;;;;;;;0.30;0.30;;;;;;;12.25;60.94;100272.97;5088420;29;20053;-83
2023/03/22 10:08:29;;;;;;;1.00;0.43;;;;;;;12.31;60.33;100255.22;5087825;29;20115;-82
2023/03/22 10:11:00;;;;;;;0.30;0.30;;;;;;;12.28;60.21;100246.53;5068748;29;20043;-85
2023/03/22 10:13:55;;;;;;;0.82;0.82;;;;;;;12.48;60.25;100255.38;5087876;29;20040;-84
2023/03/22 10:16:33;;;;;;;0.50;0.50;;;;;;;12.34;59.75;100249.84;5094452;28;20040;-83
2023/03/22 10:19:23;;;;;;;0.30;0.30;;;;;;;12.35;59.97;100252.41;5105114;29;20081;-85
2023/03/22 10:21:56;;;;;;;5.70;0.98;;;;;;;12.52;60.22;100256.94;5078676;29;20036;-84
2023/03/22 10:24:34;;;;;;;;;;;;;;;12.45;59.81;100263.38;5071093;28;20431;-84
2023/03/22 10:27:14;;;;;;;0.25;0.25;;;;;;;12.58;58.61;100261.97;5082045;29;19920;-84
2023/03/22 10:30:05;;;;;;;0.55;0.55;;;;;;;12.56;58.95;100262.94;5096369;28;20487;-85
2023/03/22 10:32:41;;;;;;;0.68;0.68;;;;;;;12.53;58.82;100263.91;5081269;29;20278;-84
2023/03/22 10:35:14;;;;;;;0.30;0.30;;;;;;;12.41;58.12;100264.44;5074294;29;20039;-85
2023/03/22 10:37:48;;;;;;;0.50;0.50;;;;;;;12.47;58.81;100264.19;5085339;29;20531;-84
2023/03/22 10:40:25;;;;;;;0.40;0.40;;;;;;;12.66;59.04;100271.31;5112439;28;20050;-86
2023/03/22 10:43:02;;;;;;;0.30;0.30;;;;;;;12.73;58.74;100276.22;5081979;29;20055;-86
2023/03/22 10:45:34;;;;;;;0.20;0.20;;;;;;;12.67;58.37;100267.75;5076935;29;20047;-85
2023/03/22 10:48:13;;;;;;;0.20;0.20;;;;;;;12.57;58.31;100268.13;5102013;29;20027;-86
2023/03/22 10:50:44;;;;;;;0.50;0.50;;;;;;;12.51;58.41;100276.31;5098194;29;20040;-85
2023/03/22 10:53:31;;;;;;;0.22;0.22;;;;;;;12.43;58.15;100262.63;5068984;29;20766;-84
2023/03/22 10:56:02;;;;;;;1.88;0.90;;;;;;;12.58;58.75;100264.59;5081319;29;20042;-85
2023/03/22 10:58:33;;;;;;;0.30;0.30;;;;;;;12.51;58.78;100257.88;5087107;29;20031;-84
2023/03/22 11:01:07;;;;;;;0.20;0.20;;;;;;;12.62;58.89;100264.44;5068177;29;20052;-84
2023/03/22 11:03:43;;;;;;;8.88;1.45;;;;;;;12.68;59.69;100264.19;5071462;29;20031;-84
2023/03/22 11:06:16;;;;;;;0.28;0.28;;;;;;;12.77;59.60;100269.03;5101729;28;20043;-84
2023/03/22 11:08:49;;;;;;;;;;;;;;;12.53;58.65;100261.28;5087614;29;20084;-84
2023/03/22 11:11:25;;;;;;;0.20;0.20;;;;;;;12.56;59.36;100270.84;5069673;29;19921;-84
2023/03/22 11:14:25;;;;;;;0.20;0.20;;;;;;;12.58;58.42;100268.97;5100701;29;20039;-84
2023/03/22 11:17:05;;;;;;;0.57;0.57;;;;;;;12.66;58.91;100271.31;5096269;29;20040;-85
2023/03/22 11:19:48;;;;;;;6.32;0.82;;;;;;;12.70;58.97;100270.22;5115862;28;20043;-84
2023/03/22 11:22:25;;;;;;;;;;;;;;;12.72;58.08;100261.38;5069243;29;20095;-84
2023/03/22 11:24:57;;;;;;;0.50;0.50;;;;;;;12.69;58.12;100271.16;5069760;29;19926;-84
2023/03/22 11:27:32;;;;;;;0.60;0.60;;;;;;;12.80;58.75;100268.06;5086181;29;20111;-85
2023/03/22 11:30:22;;;;;;;0.63;0.63;;;;;;;12.72;56.95;100263.13;5087970;29;20329;-84
2023/03/22 11:33:08;;;;;;;0.43;0.43;;;;;;;12.57;57.32;100264.63;5082762;29;20048;-84
2023/03/22 11:35:38;;;;;;;0.40;0.40;;;;;;;12.74;57.52;100267.41;5079336;29;20556;-84
2023/03/22 11:38:33;;;;;;;0.30;0.30;;;;;;;12.63;57.60;100266.16;5084295;29;20028;-85
2023/03/22 11:41:07;;;;;;;0.35;0.35;;;;;;;12.60;58.48;100254.00;5099682;28;20036;-84
2023/03/22 11:43:47;;;;;;;0.35;0.35;;;;;;;12.70;58.40;100252.69;5085020;29;20094;-83
2023/03/22 11:46:18;;;;;;;0.43;0.43;;;;;;;12.81;57.07;100254.84;5102521;28;20032;-84
2023/03/22 11:48:56;;;;;;;3.13;1.85;;;;;;;12.86;57.35;100237.03;5068302;29;20031;-85
2023/03/22 11:51:37;;;;;;;0.20;0.20;;;;;;;12.78;57.06;100241.78;5081976;29;20091;-85
2023/03/22 11:54:14;;;;;;;0.20;0.20;;;;;;;12.87;57.29;100244.03;5073812;29;20032;-84
2023/03/22 11:56:47;;;;;;;0.35;0.35;;;;;;;12.94;57.51;100235.84;5094274;29;20035;-85
2023/03/22 11:59:30;;;;;;;0.20;0.20;;;;;;;12.99;56.71;100242.63;5090349;28;20098;-85